BENGL11 KNQX-KNQX
Flight info
| Callsign | BENGL11 |
|---|---|
| Flight time | N/A |
| Altitude | 11500 |
| Route | KQQS |
| Aircraft | VF35/M-SDFIRY/LB1 |
Departure
| Time | 2026-05-07 23:00 |
|---|---|
| Airport | Naval Air Station Key West/Boca Chica Field (KNQX) |
Arrival
| Time | N/A |
|---|---|
| Airport | Naval Air Station Key West/Boca Chica Field (KNQX) |
| Time | Latitude | Longitude | Altitude | Speed | Heading |
|---|---|---|---|---|---|
| 2026-05-07 22:58 | 24.57960 | -81.69078 | 19 ft | 0 kts | 310° |
| 2026-05-07 22:59 | 24.57957 | -81.69176 | 19 ft | 36 kts | 221° |
| 2026-05-07 23:00 | 24.57649 | -81.68925 | 14 ft | 124 kts | 130° |
| 2026-05-07 23:00 | 24.56905 | -81.67721 | 743 ft | 210 kts | 71° |
| 2026-05-07 23:00 | 24.58154 | -81.67310 | 3530 ft | 271 kts | 355° |
| 2026-05-07 23:00 | 24.60298 | -81.67524 | 6550 ft | 348 kts | 354° |
| 2026-05-07 23:01 | 24.62859 | -81.67110 | 10588 ft | 396 kts | 23° |
| 2026-05-07 23:01 | 24.65785 | -81.65637 | 13437 ft | 540 kts | 21° |
| 2026-05-07 23:01 | 24.69559 | -81.64435 | 14456 ft | 540 kts | 16° |
| 2026-05-07 23:01 | 24.72977 | -81.63593 | 14114 ft | 538 kts | 11° |
| 2026-05-07 23:02 | 24.76676 | -81.62936 | 13868 ft | 539 kts | 9° |
| 2026-05-07 23:02 | 24.80332 | -81.62377 | 13720 ft | 536 kts | 8° |
| 2026-05-07 23:02 | 24.84033 | -81.61800 | 13633 ft | 536 kts | 13° |
| 2026-05-07 23:02 | 24.87502 | -81.60367 | 13601 ft | 536 kts | 30° |
| 2026-05-07 23:03 | 24.90439 | -81.57870 | 13582 ft | 534 kts | 46° |
| 2026-05-07 23:03 | 24.92770 | -81.54670 | 13561 ft | 536 kts | 53° |
| 2026-05-07 23:03 | 24.94891 | -81.51297 | 13533 ft | 536 kts | 55° |
| 2026-05-07 23:03 | 24.96952 | -81.47866 | 13522 ft | 536 kts | 56° |
| 2026-05-07 23:04 | 24.98990 | -81.44421 | 13506 ft | 536 kts | 56° |
| 2026-05-07 23:04 | 25.01225 | -81.41135 | 13506 ft | 535 kts | 50° |
| 2026-05-07 23:04 | 25.03587 | -81.37966 | 13494 ft | 535 kts | 52° |
| 2026-05-07 23:04 | 25.05828 | -81.34674 | 13489 ft | 536 kts | 52° |
| 2026-05-07 23:05 | 25.08136 | -81.31454 | 13484 ft | 535 kts | 51° |
| 2026-05-07 23:05 | 25.10417 | -81.28211 | 13486 ft | 536 kts | 52° |
| 2026-05-07 23:05 | 25.12694 | -81.24955 | 13485 ft | 535 kts | 51° |
| 2026-05-07 23:05 | 25.14990 | -81.21715 | 13484 ft | 536 kts | 51° |
| 2026-05-07 23:06 | 25.17269 | -81.18459 | 13478 ft | 535 kts | 51° |
| 2026-05-07 23:06 | 25.19553 | -81.15211 | 13475 ft | 535 kts | 51° |
| 2026-05-07 23:06 | 25.21840 | -81.11958 | 13483 ft | 536 kts | 51° |
| 2026-05-07 23:06 | 25.24120 | -81.08701 | 13488 ft | 536 kts | 51° |
| 2026-05-07 23:07 | 25.26406 | -81.05444 | 13490 ft | 536 kts | 51° |
| 2026-05-07 23:07 | 25.28690 | -81.02184 | 13476 ft | 535 kts | 51° |
| 2026-05-07 23:07 | 25.30972 | -80.98923 | 13468 ft | 537 kts | 51° |
| 2026-05-07 23:07 | 25.33254 | -80.95662 | 13467 ft | 536 kts | 51° |
| 2026-05-07 23:08 | 25.35508 | -80.92439 | 13467 ft | 537 kts | 51° |
| 2026-05-07 23:08 | 25.37791 | -80.89170 | 13464 ft | 537 kts | 51° |
| 2026-05-07 23:08 | 25.40078 | -80.85894 | 13467 ft | 538 kts | 51° |
| 2026-05-07 23:08 | 25.42363 | -80.82619 | 13458 ft | 537 kts | 51° |
| 2026-05-07 23:09 | 25.44648 | -80.79341 | 13465 ft | 538 kts | 51° |
| 2026-05-07 23:09 | 25.46932 | -80.76062 | 13460 ft | 537 kts | 51° |
| 2026-05-07 23:09 | 25.49219 | -80.72779 | 13458 ft | 538 kts | 51° |
| 2026-05-07 23:09 | 25.51501 | -80.69497 | 13454 ft | 537 kts | 51° |
| 2026-05-07 23:10 | 25.53756 | -80.66255 | 13457 ft | 538 kts | 51° |
| 2026-05-07 23:10 | 25.56040 | -80.62968 | 13456 ft | 537 kts | 51° |
| 2026-05-07 23:10 | 25.58323 | -80.59679 | 13459 ft | 538 kts | 51° |
| 2026-05-07 23:10 | 25.60620 | -80.56367 | 13464 ft | 537 kts | 51° |
| 2026-05-07 23:11 | 25.62877 | -80.53113 | 13470 ft | 537 kts | 51° |
| 2026-05-07 23:11 | 25.65153 | -80.49827 | 13468 ft | 538 kts | 51° |
| 2026-05-07 23:11 | 25.67415 | -80.46560 | 13466 ft | 537 kts | 51° |
| 2026-05-07 23:11 | 25.69706 | -80.43248 | 13470 ft | 538 kts | 51° |
| 2026-05-07 23:12 | 25.71982 | -80.39957 | 13468 ft | 537 kts | 51° |
| 2026-05-07 23:12 | 25.74254 | -80.36667 | 13467 ft | 537 kts | 51° |
| 2026-05-07 23:12 | 25.76526 | -80.33376 | 13465 ft | 538 kts | 51° |
| 2026-05-07 23:12 | 25.79044 | -80.30332 | 13477 ft | 535 kts | 38° |
| 2026-05-07 23:13 | 25.82244 | -80.28250 | 13494 ft | 535 kts | 21° |
| 2026-05-07 23:13 | 25.85862 | -80.27356 | 13507 ft | 537 kts | 3° |
| 2026-05-07 23:13 | 25.89581 | -80.27633 | 13508 ft | 538 kts | 352° |
| 2026-05-07 23:13 | 25.93269 | -80.28385 | 13491 ft | 538 kts | 349° |
| 2026-05-07 23:14 | 25.96931 | -80.29244 | 13483 ft | 538 kts | 348° |
| 2026-05-07 23:14 | 26.00585 | -80.30137 | 13477 ft | 537 kts | 348° |
| 2026-05-07 23:14 | 26.04245 | -80.31043 | 13472 ft | 539 kts | 348° |
| 2026-05-07 23:14 | 26.07901 | -80.31950 | 13470 ft | 538 kts | 348° |
| 2026-05-07 23:15 | 26.11567 | -80.32857 | 13468 ft | 539 kts | 348° |
| 2026-05-07 23:15 | 26.15178 | -80.33747 | 13471 ft | 538 kts | 348° |
| 2026-05-07 23:15 | 26.18842 | -80.34607 | 13468 ft | 538 kts | 352° |
| 2026-05-07 23:15 | 26.22566 | -80.35076 | 13468 ft | 538 kts | 355° |
| 2026-05-07 23:16 | 26.26284 | -80.35544 | 13460 ft | 538 kts | 352° |
| 2026-05-07 23:16 | 26.29997 | -80.36126 | 13453 ft | 538 kts | 353° |
| 2026-05-07 23:16 | 26.33719 | -80.36607 | 13454 ft | 539 kts | 353° |
| 2026-05-07 23:16 | 26.37424 | -80.37151 | 13462 ft | 538 kts | 353° |
| 2026-05-07 23:17 | 26.41152 | -80.37677 | 13465 ft | 538 kts | 353° |
| 2026-05-07 23:17 | 26.44867 | -80.38192 | 13458 ft | 538 kts | 353° |
| 2026-05-07 23:17 | 26.48579 | -80.38727 | 13455 ft | 539 kts | 353° |
| 2026-05-07 23:17 | 26.52292 | -80.39248 | 13457 ft | 538 kts | 353° |
| 2026-05-07 23:18 | 26.56015 | -80.39775 | 13452 ft | 538 kts | 353° |
| 2026-05-07 23:18 | 26.59736 | -80.40305 | 13456 ft | 539 kts | 353° |
| 2026-05-07 23:18 | 26.63460 | -80.40830 | 13449 ft | 538 kts | 353° |
| 2026-05-07 23:18 | 26.67135 | -80.41353 | 13453 ft | 539 kts | 353° |
| 2026-05-07 23:19 | 26.70848 | -80.41881 | 13462 ft | 538 kts | 353° |
| 2026-05-07 23:19 | 26.74569 | -80.42408 | 13455 ft | 539 kts | 353° |
| 2026-05-07 23:19 | 26.78293 | -80.42938 | 13464 ft | 540 kts | 353° |
| 2026-05-07 23:19 | 26.82017 | -80.43468 | 13463 ft | 539 kts | 353° |
| 2026-05-07 23:20 | 26.85738 | -80.43998 | 13454 ft | 540 kts | 353° |
| 2026-05-07 23:20 | 26.89463 | -80.44528 | 13451 ft | 539 kts | 353° |
| 2026-05-07 23:20 | 26.93187 | -80.45059 | 13446 ft | 540 kts | 353° |
| 2026-05-07 23:20 | 26.96911 | -80.45591 | 13446 ft | 539 kts | 353° |
| 2026-05-07 23:21 | 27.00627 | -80.46121 | 13449 ft | 540 kts | 353° |
| 2026-05-07 23:21 | 27.04355 | -80.46653 | 13449 ft | 539 kts | 352° |
| 2026-05-07 23:21 | 27.08084 | -80.47187 | 13448 ft | 540 kts | 352° |
| 2026-05-07 23:21 | 27.11809 | -80.47720 | 13447 ft | 539 kts | 352° |
| 2026-05-07 23:22 | 27.15535 | -80.48252 | 13441 ft | 540 kts | 352° |
| 2026-05-07 23:22 | 27.19259 | -80.48786 | 13446 ft | 540 kts | 352° |
| 2026-05-07 23:22 | 27.22981 | -80.49319 | 13451 ft | 540 kts | 352° |
| 2026-05-07 23:22 | 27.26715 | -80.49854 | 13446 ft | 540 kts | 352° |
| 2026-05-07 23:23 | 27.30707 | -80.50429 | 13447 ft | 615 kts | 352° |
| 2026-05-07 23:23 | 27.34988 | -80.51042 | 13407 ft | 623 kts | 352° |
| 2026-05-07 23:23 | 27.39316 | -80.51664 | 13375 ft | 626 kts | 352° |
| 2026-05-07 23:23 | 27.43648 | -80.52289 | 13366 ft | 629 kts | 352° |
| 2026-05-07 23:24 | 27.47937 | -80.52905 | 13379 ft | 630 kts | 352° |
| 2026-05-07 23:24 | 27.52288 | -80.53533 | 13391 ft | 630 kts | 352° |
| 2026-05-07 23:24 | 27.56640 | -80.54160 | 13405 ft | 632 kts | 352° |
| 2026-05-07 23:24 | 27.61004 | -80.54790 | 13426 ft | 631 kts | 352° |
| 2026-05-07 23:25 | 27.65360 | -80.55419 | 13439 ft | 631 kts | 352° |
| 2026-05-07 23:25 | 27.69721 | -80.56049 | 13454 ft | 631 kts | 352° |
| 2026-05-07 23:25 | 27.74074 | -80.56679 | 13465 ft | 631 kts | 352° |
| 2026-05-07 23:25 | 27.78463 | -80.57309 | 13456 ft | 639 kts | 351° |
| 2026-05-07 23:26 | 27.82880 | -80.57958 | 13456 ft | 639 kts | 351° |
| 2026-05-07 23:26 | 27.87291 | -80.58593 | 13445 ft | 639 kts | 351° |
| 2026-05-07 23:26 | 27.91708 | -80.59234 | 13444 ft | 639 kts | 351° |
| 2026-05-07 23:26 | 27.96128 | -80.59878 | 13447 ft | 639 kts | 351° |
| 2026-05-07 23:27 | 28.04940 | -80.61160 | 13447 ft | 638 kts | 351° |
| 2026-05-07 23:27 | 28.09303 | -80.61793 | 13447 ft | 638 kts | 351° |
| 2026-05-07 23:27 | 28.13702 | -80.62435 | 13452 ft | 638 kts | 350° |
| 2026-05-07 23:28 | 28.18115 | -80.63079 | 13433 ft | 639 kts | 350° |
| 2026-05-07 23:28 | 28.22523 | -80.63722 | 13429 ft | 638 kts | 350° |
| 2026-05-07 23:28 | 28.26934 | -80.64367 | 13429 ft | 638 kts | 350° |
| 2026-05-07 23:28 | 28.31356 | -80.65013 | 13430 ft | 638 kts | 350° |
| 2026-05-07 23:29 | 28.35761 | -80.65658 | 13427 ft | 638 kts | 350° |
| 2026-05-07 23:29 | 28.40162 | -80.66303 | 13401 ft | 639 kts | 350° |
| 2026-05-07 23:29 | 28.44574 | -80.66949 | 13409 ft | 639 kts | 350° |
| 2026-05-07 23:29 | 28.48980 | -80.67596 | 13437 ft | 638 kts | 350° |
| 2026-05-07 23:30 | 28.53332 | -80.68235 | 13464 ft | 638 kts | 350° |
| 2026-05-07 23:30 | 28.57738 | -80.68878 | 13438 ft | 638 kts | 352° |
| 2026-05-07 23:30 | 28.61382 | -80.67003 | 13058 ft | 650 kts | 90° |
| 2026-05-07 23:30 | 28.58133 | -80.64634 | 14471 ft | 630 kts | 172° |
| 2026-05-07 23:31 | 28.53773 | -80.64032 | 13939 ft | 634 kts | 180° |
| 2026-05-07 23:31 | 28.49354 | -80.64175 | 13171 ft | 636 kts | 189° |
| 2026-05-07 23:31 | 28.45008 | -80.65072 | 12458 ft | 635 kts | 198° |
| 2026-05-07 23:31 | 28.40839 | -80.66690 | 11752 ft | 633 kts | 206° |
| 2026-05-07 23:32 | 28.36938 | -80.68998 | 11124 ft | 633 kts | 214° |
| 2026-05-07 23:32 | 28.33398 | -80.71967 | 10787 ft | 633 kts | 223° |
| 2026-05-07 23:32 | 28.30303 | -80.75515 | 10624 ft | 631 kts | 232° |
| 2026-05-07 23:32 | 28.27573 | -80.79424 | 10539 ft | 632 kts | 228° |
| 2026-05-07 23:33 | 28.24241 | -80.82676 | 10547 ft | 637 kts | 213° |
| 2026-05-07 23:33 | 28.20280 | -80.84777 | 10565 ft | 641 kts | 197° |
| 2026-05-07 23:33 | 28.15869 | -80.85609 | 10574 ft | 647 kts | 182° |
| 2026-05-07 23:33 | 28.11387 | -80.85058 | 10587 ft | 651 kts | 166° |
| 2026-05-07 23:34 | 28.07169 | -80.83161 | 10599 ft | 656 kts | 150° |
| 2026-05-07 23:34 | 28.03430 | -80.80166 | 10565 ft | 660 kts | 142° |
| 2026-05-07 23:34 | 27.99922 | -80.76808 | 10517 ft | 660 kts | 140° |
| 2026-05-07 23:34 | 27.96466 | -80.73399 | 10495 ft | 659 kts | 143° |
| 2026-05-07 23:35 | 27.92683 | -80.70494 | 10192 ft | 657 kts | 152° |
| 2026-05-07 23:35 | 27.88665 | -80.68071 | 8702 ft | 652 kts | 156° |
| 2026-05-07 23:35 | 27.84495 | -80.66032 | 7674 ft | 654 kts | 160° |
| 2026-05-07 23:35 | 27.80243 | -80.64207 | 8975 ft | 654 kts | 162° |
| 2026-05-07 23:36 | 27.75947 | -80.62558 | 9342 ft | 652 kts | 163° |
| 2026-05-07 23:36 | 27.71596 | -80.61032 | 8637 ft | 655 kts | 165° |
| 2026-05-07 23:36 | 27.67207 | -80.59653 | 7013 ft | 653 kts | 166° |
| 2026-05-07 23:36 | 27.62839 | -80.58414 | 7073 ft | 609 kts | 167° |
| 2026-05-07 23:37 | 27.58863 | -80.57338 | 11756 ft | 636 kts | 167° |
| 2026-05-07 23:37 | 27.54588 | -80.56201 | 13385 ft | 611 kts | 168° |
| 2026-05-07 23:37 | 27.50624 | -80.55212 | 18158 ft | 610 kts | 171° |
| 2026-05-07 23:37 | 27.46339 | -80.54260 | 16545 ft | 634 kts | 170° |
| 2026-05-07 23:38 | 27.41981 | -80.53238 | 15712 ft | 644 kts | 169° |
| 2026-05-07 23:38 | 27.37579 | -80.52164 | 15149 ft | 647 kts | 168° |
| 2026-05-07 23:38 | 27.33173 | -80.51077 | 14563 ft | 649 kts | 168° |
| 2026-05-07 23:38 | 27.28729 | -80.50029 | 13955 ft | 650 kts | 173° |
| 2026-05-07 23:39 | 27.24229 | -80.49463 | 13301 ft | 650 kts | 176° |
| 2026-05-07 23:39 | 27.19726 | -80.48887 | 12870 ft | 652 kts | 171° |
| 2026-05-07 23:39 | 27.15234 | -80.48177 | 12674 ft | 652 kts | 175° |
| 2026-05-07 23:39 | 27.10731 | -80.47594 | 12567 ft | 652 kts | 172° |
| 2026-05-07 23:40 | 27.06227 | -80.46894 | 12524 ft | 653 kts | 174° |
| 2026-05-07 23:40 | 27.01716 | -80.46296 | 12497 ft | 652 kts | 173° |
| 2026-05-07 23:40 | 26.97213 | -80.45619 | 12487 ft | 652 kts | 173° |
| 2026-05-07 23:40 | 26.92699 | -80.44995 | 12470 ft | 652 kts | 173° |
| 2026-05-07 23:41 | 26.88250 | -80.44356 | 12463 ft | 653 kts | 173° |
| 2026-05-07 23:41 | 26.83741 | -80.43708 | 12462 ft | 653 kts | 173° |
| 2026-05-07 23:41 | 26.79237 | -80.43078 | 12464 ft | 653 kts | 173° |
| 2026-05-07 23:41 | 26.74724 | -80.42424 | 12471 ft | 653 kts | 173° |
| 2026-05-07 23:42 | 26.70205 | -80.41791 | 12467 ft | 653 kts | 173° |
| 2026-05-07 23:42 | 26.65699 | -80.41147 | 12459 ft | 652 kts | 173° |
| 2026-05-07 23:42 | 26.61184 | -80.40505 | 11970 ft | 654 kts | 173° |
| 2026-05-07 23:42 | 26.56685 | -80.39873 | 11279 ft | 643 kts | 173° |
| 2026-05-07 23:43 | 26.52590 | -80.39287 | 10936 ft | 541 kts | 173° |
| 2026-05-07 23:43 | 26.48868 | -80.38765 | 10735 ft | 535 kts | 173° |
| 2026-05-07 23:43 | 26.45161 | -80.38240 | 10629 ft | 535 kts | 173° |
| 2026-05-07 23:43 | 26.41512 | -80.37722 | 10564 ft | 536 kts | 173° |
| 2026-05-07 23:44 | 26.37816 | -80.37202 | 10531 ft | 536 kts | 173° |
| 2026-05-07 23:44 | 26.34110 | -80.36678 | 10503 ft | 535 kts | 173° |
| 2026-05-07 23:44 | 26.30416 | -80.36157 | 10492 ft | 535 kts | 173° |
| 2026-05-07 23:44 | 26.26722 | -80.35636 | 10484 ft | 535 kts | 173° |
| 2026-05-07 23:45 | 26.23028 | -80.35115 | 10475 ft | 535 kts | 173° |
| 2026-05-07 23:45 | 26.19334 | -80.34595 | 10474 ft | 534 kts | 173° |
| 2026-05-07 23:45 | 26.15637 | -80.34075 | 10469 ft | 535 kts | 173° |
| 2026-05-07 23:45 | 26.11944 | -80.33556 | 10471 ft | 535 kts | 173° |
| 2026-05-07 23:46 | 26.08255 | -80.33037 | 10471 ft | 535 kts | 172° |
| 2026-05-07 23:46 | 26.05810 | -80.32694 | 10474 ft | 535 kts | 172° |
| 2026-05-07 23:46 | 26.02118 | -80.32175 | 10471 ft | 534 kts | 172° |
| 2026-05-07 23:46 | 25.98432 | -80.31658 | 10470 ft | 535 kts | 173° |
| 2026-05-07 23:47 | 25.94731 | -80.31139 | 10471 ft | 535 kts | 172° |
| 2026-05-07 23:47 | 25.91037 | -80.30621 | 10487 ft | 535 kts | 172° |
| 2026-05-07 23:47 | 25.87341 | -80.30104 | 10494 ft | 535 kts | 173° |
| 2026-05-07 23:47 | 25.83656 | -80.29591 | 10499 ft | 535 kts | 173° |
| 2026-05-07 23:48 | 25.79943 | -80.29665 | 10508 ft | 536 kts | 190° |
| 2026-05-07 23:48 | 25.76413 | -80.30975 | 10527 ft | 537 kts | 208° |
| 2026-05-07 23:48 | 25.73406 | -80.33407 | 10532 ft | 536 kts | 226° |
| 2026-05-07 23:48 | 25.71208 | -80.36730 | 10548 ft | 536 kts | 243° |
| 2026-05-07 23:49 | 25.70025 | -80.40625 | 10547 ft | 535 kts | 261° |
| 2026-05-07 23:49 | 25.69968 | -80.44731 | 10552 ft | 533 kts | 279° |
| 2026-05-07 23:49 | 25.71024 | -80.48605 | 10561 ft | 533 kts | 296° |
| 2026-05-07 23:49 | 25.73119 | -80.51982 | 10559 ft | 532 kts | 314° |
| 2026-05-07 23:50 | 25.76037 | -80.54477 | 10550 ft | 531 kts | 332° |
| 2026-05-07 23:50 | 25.79502 | -80.55856 | 10546 ft | 531 kts | 350° |
| 2026-05-07 23:50 | 25.83176 | -80.55985 | 10545 ft | 531 kts | 8° |
| 2026-05-07 23:50 | 25.86751 | -80.54990 | 10534 ft | 531 kts | 19° |
| 2026-05-07 23:51 | 25.90223 | -80.53585 | 10513 ft | 530 kts | 21° |
| 2026-05-07 23:51 | 25.93659 | -80.52057 | 10500 ft | 531 kts | 22° |
| 2026-05-07 23:51 | 25.97068 | -80.50485 | 10494 ft | 531 kts | 22° |
| 2026-05-07 23:51 | 26.00475 | -80.48888 | 10489 ft | 531 kts | 23° |
| 2026-05-07 23:52 | 26.03836 | -80.47301 | 10488 ft | 531 kts | 23° |
| 2026-05-07 23:52 | 26.07242 | -80.45688 | 10485 ft | 531 kts | 23° |
| 2026-05-07 23:52 | 26.10646 | -80.44074 | 10486 ft | 532 kts | 23° |
| 2026-05-07 23:52 | 26.14054 | -80.42459 | 10482 ft | 531 kts | 23° |
| 2026-05-07 23:53 | 26.17460 | -80.40842 | 10485 ft | 532 kts | 23° |
| 2026-05-07 23:53 | 26.20726 | -80.39212 | 10485 ft | 478 kts | 30° |
| 2026-05-07 23:53 | 26.23102 | -80.37039 | 10488 ft | 417 kts | 51° |
| 2026-05-07 23:53 | 26.24471 | -80.34192 | 10501 ft | 418 kts | 73° |
| 2026-05-07 23:54 | 26.25142 | -80.31039 | 10493 ft | 419 kts | 79° |
| 2026-05-07 23:54 | 26.25618 | -80.27821 | 10484 ft | 420 kts | 82° |
| 2026-05-07 23:54 | 26.26026 | -80.24605 | 10484 ft | 419 kts | 82° |
| 2026-05-07 23:54 | 26.26406 | -80.21378 | 10482 ft | 419 kts | 83° |
| 2026-05-07 23:55 | 26.26773 | -80.18152 | 10497 ft | 419 kts | 83° |
| 2026-05-07 23:55 | 26.27127 | -80.14973 | 10497 ft | 420 kts | 83° |
| 2026-05-07 23:55 | 26.27410 | -80.11703 | 10501 ft | 419 kts | 92° |
| 2026-05-07 23:55 | 26.26804 | -80.08573 | 10524 ft | 419 kts | 114° |
| 2026-05-07 23:56 | 26.25150 | -80.05915 | 10545 ft | 420 kts | 137° |
| 2026-05-07 23:56 | 26.22709 | -80.04178 | 10553 ft | 419 kts | 160° |
| 2026-05-07 23:56 | 26.19902 | -80.03325 | 10539 ft | 418 kts | 169° |
| 2026-05-07 23:56 | 26.17031 | -80.02748 | 10522 ft | 419 kts | 171° |
| 2026-05-07 23:57 | 26.14153 | -80.02265 | 10511 ft | 418 kts | 172° |
| 2026-05-07 23:57 | 26.11260 | -80.02210 | 10512 ft | 418 kts | 191° |
| 2026-05-07 23:57 | 26.08568 | -80.03369 | 10530 ft | 417 kts | 214° |
| 2026-05-07 23:57 | 26.06497 | -80.05604 | 10544 ft | 417 kts | 237° |
| 2026-05-07 23:58 | 26.05345 | -80.08548 | 10541 ft | 418 kts | 256° |
| 2026-05-07 23:58 | 26.04737 | -80.11696 | 10531 ft | 416 kts | 260° |
| 2026-05-07 23:58 | 26.04279 | -80.14874 | 10511 ft | 415 kts | 262° |
| 2026-05-07 23:58 | 26.03790 | -80.18036 | 10508 ft | 415 kts | 252° |
| 2026-05-07 23:59 | 26.02451 | -80.20878 | 10523 ft | 417 kts | 230° |
| 2026-05-07 23:59 | 26.00249 | -80.22935 | 10540 ft | 416 kts | 208° |
| 2026-05-07 23:59 | 25.97555 | -80.24109 | 10534 ft | 416 kts | 197° |
| 2026-05-07 23:59 | 25.94763 | -80.24997 | 10527 ft | 417 kts | 195° |
| 2026-05-08 00:00 | 25.91962 | -80.25813 | 10517 ft | 417 kts | 194° |
| 2026-05-08 00:00 | 25.89154 | -80.26618 | 10510 ft | 416 kts | 194° |
| 2026-05-08 00:00 | 25.86389 | -80.27569 | 10509 ft | 417 kts | 202° |
| 2026-05-08 00:00 | 25.83819 | -80.28967 | 10500 ft | 416 kts | 209° |
| 2026-05-08 00:01 | 25.81343 | -80.30645 | 10499 ft | 418 kts | 213° |
| 2026-05-08 00:01 | 25.78967 | -80.32495 | 10496 ft | 416 kts | 217° |
| 2026-05-08 00:01 | 25.76670 | -80.34466 | 10491 ft | 418 kts | 219° |
| 2026-05-08 00:01 | 25.74431 | -80.36520 | 10489 ft | 417 kts | 220° |
| 2026-05-08 00:02 | 25.72214 | -80.38618 | 10493 ft | 417 kts | 220° |
| 2026-05-08 00:02 | 25.70022 | -80.40724 | 10492 ft | 417 kts | 221° |
| 2026-05-08 00:02 | 25.67829 | -80.42847 | 10495 ft | 417 kts | 221° |
| 2026-05-08 00:02 | 25.65670 | -80.45001 | 10492 ft | 418 kts | 225° |
| 2026-05-08 00:03 | 25.63700 | -80.47364 | 10497 ft | 417 kts | 228° |
| 2026-05-08 00:03 | 25.61709 | -80.49721 | 10496 ft | 418 kts | 225° |
| 2026-05-08 00:03 | 25.59666 | -80.52013 | 10496 ft | 419 kts | 226° |
| 2026-05-08 00:03 | 25.57665 | -80.54357 | 10496 ft | 418 kts | 226° |
| 2026-05-08 00:04 | 25.55684 | -80.56655 | 10495 ft | 419 kts | 226° |
| 2026-05-08 00:04 | 25.53657 | -80.58973 | 10490 ft | 419 kts | 226° |
| 2026-05-08 00:04 | 25.51645 | -80.61304 | 10485 ft | 418 kts | 226° |
| 2026-05-08 00:04 | 25.49626 | -80.63637 | 10479 ft | 419 kts | 226° |
| 2026-05-08 00:05 | 25.47603 | -80.65962 | 10477 ft | 420 kts | 226° |
| 2026-05-08 00:05 | 25.45582 | -80.68292 | 10481 ft | 419 kts | 226° |
| 2026-05-08 00:05 | 25.43562 | -80.70620 | 10475 ft | 421 kts | 226° |
| 2026-05-08 00:05 | 25.41889 | -80.73254 | 10491 ft | 422 kts | 246° |
| 2026-05-08 00:06 | 25.41240 | -80.76390 | 10517 ft | 422 kts | 269° |
| 2026-05-08 00:06 | 25.41726 | -80.79569 | 10529 ft | 421 kts | 292° |
| 2026-05-08 00:06 | 25.43267 | -80.81508 | 9353 ft | 249 kts | 31° |
| 2026-05-08 00:06 | 25.44710 | -80.80102 | 8324 ft | 377 kts | 44° |
| 2026-05-08 00:07 | 25.46940 | -80.78228 | 9012 ft | 410 kts | 33° |